< < Back
Terminal Aerodrome Forecast


Current Version              Previous Versions:   1  2  3  4  5  6  7  8  9  

Terminal Aerodrome Forecast

143
FTUS44 KMRX 022320
TAFCHA
TAF
KCHA 022320Z 0300/0324 01010KT P6SM SCT100
     FM030600 VRB03KT 4SM BR OVC015
     FM031400 15004KT 5SM -RA BR OVC010=



Latest METAR

022
SAUS80 KWBC 030500
MTRCHA
METAR KCHA 030453Z 03006KT 7SM -RA SCT033 BKN050 OVC060 08/03 A3027 RMK
AO2 RAB49 SLP251 LAST P0000 T00830033 401280072


USA.gov is the U.S. government's official web portal to all federal, state and local government web resources and services.